createdAt,value
2018-03-01T00:00:20.616Z,0.00
2018-03-01T00:01:20.582Z,0.00
2018-03-01T00:02:41.530Z,0.00
2018-03-01T00:03:20.551Z,0.00
2018-03-01T00:04:20.543Z,0.00
2018-03-01T00:05:20.509Z,0.00
2018-03-01T00:06:20.555Z,0.00
2018-03-01T00:07:20.494Z,0.00
2018-03-01T00:08:41.454Z,0.00
2018-03-01T00:09:20.474Z,0.00
2018-03-01T00:10:21.148Z,0.00
2018-03-01T00:11:20.450Z,0.00
2018-03-01T00:12:20.443Z,0.00
2018-03-01T00:13:20.934Z,0.00
2018-03-01T00:14:41.366Z,0.00
2018-03-01T00:15:20.385Z,0.00
2018-03-01T00:16:21.411Z,0.00
2018-03-01T00:17:20.370Z,0.00
2018-03-01T00:18:20.302Z,0.00
2018-03-01T00:19:20.349Z,0.00
2018-03-01T00:20:41.288Z,0.00
2018-03-01T00:21:20.330Z,0.00
2018-03-01T00:22:20.286Z,0.00
2018-03-01T00:23:20.241Z,0.00
2018-03-01T00:24:20.216Z,0.00
2018-03-01T00:25:20.207Z,0.00
2018-03-01T00:26:41.185Z,0.00
2018-03-01T00:27:20.173Z,0.00
2018-03-01T00:28:20.170Z,0.00
2018-03-01T00:29:20.151Z,0.00
2018-03-01T00:30:20.133Z,0.00
2018-03-01T00:31:20.125Z,0.00
2018-03-01T00:32:41.128Z,0.00
2018-03-01T00:33:20.087Z,0.00
2018-03-01T00:34:20.081Z,0.00
2018-03-01T00:35:20.083Z,0.00
2018-03-01T00:36:20.046Z,0.00
2018-03-01T00:37:20.024Z,0.00
2018-03-01T00:38:41.017Z,0.00
2018-03-01T00:39:20.015Z,0.00
2018-03-01T00:40:19.993Z,0.00
2018-03-01T00:41:19.985Z,0.00
2018-03-01T00:42:19.961Z,0.00
2018-03-01T00:43:19.957Z,0.00
2018-03-01T00:44:40.951Z,0.00
2018-03-01T00:45:19.919Z,0.00
2018-03-01T00:46:19.899Z,0.00
2018-03-01T00:47:19.881Z,0.00
2018-03-01T00:48:19.884Z,0.00
2018-03-01T00:49:19.853Z,0.00
2018-03-01T00:50:40.864Z,0.00
2018-03-01T00:51:19.829Z,0.00
2018-03-01T00:52:19.818Z,0.00
2018-03-01T00:53:19.807Z,0.00
2018-03-01T00:54:19.805Z,0.00
2018-03-01T00:55:19.770Z,0.00
2018-03-01T00:56:40.800Z,0.00
2018-03-01T00:57:19.762Z,0.00
2018-03-01T00:58:19.730Z,0.00
2018-03-01T00:59:19.740Z,0.00
2018-03-01T01:00:19.716Z,0.00
2018-03-01T01:01:19.698Z,0.00
2018-03-01T01:02:40.713Z,0.00
2018-03-01T01:03:20.309Z,0.00
2018-03-01T01:04:19.653Z,0.00
2018-03-01T01:05:19.646Z,0.00
2018-03-01T01:06:19.632Z,0.00
2018-03-01T01:07:19.618Z,0.00
2018-03-01T01:08:40.678Z,0.00
2018-03-01T01:09:19.568Z,0.00
2018-03-01T01:10:19.577Z,0.00
2018-03-01T01:11:19.547Z,0.00
2018-03-01T01:12:19.605Z,0.00
2018-03-01T01:13:19.529Z,0.00
2018-03-01T01:14:40.516Z,0.00
2018-03-01T01:15:19.486Z,0.00
2018-03-01T01:16:19.495Z,0.00
2018-03-01T01:17:19.473Z,0.00
2018-03-01T01:18:19.441Z,0.00
2018-03-01T01:19:19.441Z,0.00
2018-03-01T01:20:40.447Z,0.00
2018-03-01T01:21:19.431Z,0.00
2018-03-01T01:22:19.385Z,0.00
2018-03-01T01:23:19.396Z,0.00
2018-03-01T01:24:19.412Z,0.00
2018-03-01T01:25:19.367Z,0.00
2018-03-01T01:26:41.103Z,0.00
2018-03-01T01:27:19.334Z,0.00
2018-03-01T01:28:19.306Z,0.00
2018-03-01T01:29:19.312Z,0.00
2018-03-01T01:30:19.286Z,0.00
2018-03-01T01:31:19.268Z,0.00
2018-03-01T01:32:40.271Z,0.00
2018-03-01T01:33:19.239Z,0.00
2018-03-01T01:34:19.235Z,0.00
2018-03-01T01:35:19.220Z,0.00
2018-03-01T01:36:19.207Z,0.00
2018-03-01T01:37:19.198Z,0.00
2018-03-01T01:38:40.192Z,0.00
2018-03-01T01:39:19.160Z,0.00
2018-03-01T01:40:19.166Z,0.00
2018-03-01T01:41:19.129Z,0.00
2018-03-01T01:42:19.128Z,0.00
2018-03-01T01:43:19.854Z,0.00
2018-03-01T01:44:40.095Z,0.00
2018-03-01T01:45:19.101Z,0.00
2018-03-01T01:46:19.059Z,0.00
2018-03-01T01:47:19.046Z,0.00
2018-03-01T01:48:19.033Z,0.00
2018-03-01T01:49:19.032Z,0.00
2018-03-01T01:50:41.032Z,0.00
2018-03-01T01:51:19.002Z,0.00
2018-03-01T01:52:18.968Z,0.00
2018-03-01T01:53:18.957Z,0.00
2018-03-01T01:54:18.956Z,0.00
2018-03-01T01:55:18.941Z,0.00
2018-03-01T01:56:39.987Z,0.00
2018-03-01T01:57:19.662Z,0.00
2018-03-01T01:58:18.904Z,0.00
2018-03-01T01:59:18.897Z,0.00
2018-03-01T02:00:18.877Z,0.00
2018-03-01T02:01:18.858Z,0.00
2018-03-01T02:02:39.840Z,0.00
2018-03-01T02:03:18.832Z,0.00
2018-03-01T02:04:18.839Z,0.00
2018-03-01T02:05:18.802Z,0.00
2018-03-01T02:06:18.781Z,0.00
2018-03-01T02:07:18.780Z,0.00
2018-03-01T02:08:39.772Z,0.00
2018-03-01T02:09:18.748Z,0.00
2018-03-01T02:10:18.736Z,0.00
2018-03-01T02:11:18.738Z,0.00
2018-03-01T02:12:18.706Z,0.00
2018-03-01T02:13:18.700Z,0.00
2018-03-01T02:14:39.674Z,0.00
2018-03-01T02:15:18.649Z,0.00
2018-03-01T02:16:18.653Z,0.00
2018-03-01T02:17:18.651Z,0.00
2018-03-01T02:18:18.614Z,0.00
2018-03-01T02:19:18.640Z,0.00
2018-03-01T02:20:39.589Z,0.00
2018-03-01T02:21:18.587Z,0.00
2018-03-01T02:22:18.555Z,0.00
2018-03-01T02:23:18.550Z,0.00
2018-03-01T02:24:18.546Z,0.00
2018-03-01T02:25:18.522Z,0.00
2018-03-01T02:26:39.506Z,0.00
2018-03-01T02:27:18.487Z,0.00
2018-03-01T02:28:18.464Z,0.00
2018-03-01T02:29:18.472Z,0.00
2018-03-01T02:30:18.447Z,0.00
2018-03-01T02:31:18.432Z,0.00
2018-03-01T02:32:39.418Z,0.00
2018-03-01T02:33:18.403Z,0.00
2018-03-01T02:34:18.397Z,0.00
2018-03-01T02:35:18.388Z,0.00
2018-03-01T02:36:18.353Z,0.00
2018-03-01T02:37:18.346Z,0.00
2018-03-01T02:38:39.347Z,0.00
2018-03-01T02:39:18.327Z,0.00
2018-03-01T02:40:18.305Z,0.00
2018-03-01T02:41:18.281Z,0.00
2018-03-01T02:42:18.277Z,0.00
2018-03-01T02:43:18.287Z,0.00
2018-03-01T02:44:39.255Z,0.00
2018-03-01T02:45:18.263Z,0.00
2018-03-01T02:46:18.222Z,0.00
2018-03-01T02:47:18.933Z,0.00
2018-03-01T02:48:18.196Z,0.00
2018-03-01T02:49:18.190Z,0.00
2018-03-01T02:50:40.998Z,0.00
2018-03-01T02:51:18.157Z,0.00
2018-03-01T02:52:18.133Z,0.00
2018-03-01T02:53:18.138Z,0.00
2018-03-01T02:54:18.132Z,0.00
2018-03-01T02:55:18.105Z,0.00
2018-03-01T02:56:39.093Z,0.00
2018-03-01T02:57:18.589Z,0.00
2018-03-01T02:58:18.057Z,0.00
2018-03-01T02:59:18.035Z,0.00
2018-03-01T03:00:18.036Z,0.00
2018-03-01T03:01:18.024Z,0.00
2018-03-01T03:02:39.847Z,0.00
2018-03-01T03:03:17.994Z,0.00
2018-03-01T03:04:17.976Z,0.00
2018-03-01T03:05:17.968Z,0.00
2018-03-01T03:06:17.948Z,0.00
2018-03-01T03:07:17.930Z,0.00
2018-03-01T03:08:38.903Z,0.00
2018-03-01T03:09:17.910Z,0.00
2018-03-01T03:10:17.883Z,0.00
2018-03-01T03:11:17.887Z,0.00
2018-03-01T03:12:17.858Z,0.00
2018-03-01T03:13:17.850Z,0.00
2018-03-01T03:14:38.828Z,0.00
2018-03-01T03:15:17.821Z,0.00
2018-03-01T03:16:17.804Z,0.00
2018-03-01T03:17:17.780Z,0.00
2018-03-01T03:18:17.771Z,0.00
2018-03-01T03:19:17.751Z,0.00
2018-03-01T03:20:38.752Z,0.00
2018-03-01T03:21:17.736Z,0.00
2018-03-01T03:22:17.693Z,0.00
2018-03-01T03:23:17.709Z,0.00
2018-03-01T03:24:17.695Z,0.00
2018-03-01T03:25:17.686Z,0.00
2018-03-01T03:26:38.682Z,0.00
2018-03-01T03:27:17.638Z,0.00
2018-03-01T03:28:17.649Z,0.00
2018-03-01T03:29:17.623Z,0.00
2018-03-01T03:30:17.602Z,0.00
2018-03-01T03:31:17.591Z,0.00
2018-03-01T03:32:38.586Z,0.00
2018-03-01T03:33:17.584Z,0.00
2018-03-01T03:34:17.558Z,0.00
2018-03-01T03:35:17.539Z,0.00
2018-03-01T03:36:17.499Z,0.00
2018-03-01T03:37:17.502Z,0.00
2018-03-01T03:38:38.545Z,0.00
2018-03-01T03:39:17.489Z,0.00
2018-03-01T03:40:17.458Z,0.00
2018-03-01T03:41:17.449Z,0.00
2018-03-01T03:42:17.444Z,0.00
2018-03-01T03:43:17.413Z,0.00
2018-03-01T03:44:38.440Z,0.00
2018-03-01T03:45:17.386Z,0.00
2018-03-01T03:46:17.379Z,0.00
2018-03-01T03:47:17.355Z,0.00
2018-03-01T03:48:17.356Z,0.00
2018-03-01T03:49:17.342Z,0.00
2018-03-01T03:50:38.394Z,0.00
2018-03-01T03:51:17.310Z,0.00
2018-03-01T03:52:17.288Z,0.00
2018-03-01T03:53:17.280Z,0.00
2018-03-01T03:54:17.268Z,0.00
2018-03-01T03:55:17.257Z,0.00
2018-03-01T03:56:38.318Z,0.00
2018-03-01T03:57:17.228Z,0.00
2018-03-01T03:58:17.219Z,0.00
2018-03-01T03:59:17.199Z,0.00
2018-03-01T04:00:17.178Z,0.00
2018-03-01T04:01:17.160Z,0.00
2018-03-01T04:02:38.158Z,0.00
2018-03-01T04:03:17.127Z,0.00
2018-03-01T04:04:17.115Z,0.00
2018-03-01T04:05:17.112Z,0.00
2018-03-01T04:06:17.088Z,0.00
2018-03-01T04:07:17.110Z,0.00
2018-03-01T04:08:38.076Z,0.00
2018-03-01T04:09:17.057Z,0.00
2018-03-01T04:10:17.902Z,0.00
2018-03-01T04:11:17.029Z,0.00
2018-03-01T04:12:17.541Z,0.00
2018-03-01T04:13:16.999Z,0.00
2018-03-01T04:14:37.977Z,0.00
2018-03-01T04:15:16.978Z,0.00
2018-03-01T04:16:16.949Z,0.00
2018-03-01T04:17:16.964Z,0.00
2018-03-01T04:18:16.912Z,0.00
2018-03-01T04:19:16.917Z,0.00
2018-03-01T04:20:37.912Z,0.00
2018-03-01T04:21:16.880Z,0.00
2018-03-01T04:22:16.868Z,0.00
2018-03-01T04:23:16.883Z,0.00
2018-03-01T04:24:16.845Z,0.00
2018-03-01T04:25:16.829Z,0.00
2018-03-01T04:26:37.828Z,0.00
2018-03-01T04:27:16.803Z,0.00
2018-03-01T04:28:16.792Z,0.00
2018-03-01T04:29:16.773Z,0.00
2018-03-01T04:30:16.753Z,0.00
2018-03-01T04:31:16.740Z,0.00
2018-03-01T04:32:37.732Z,0.00
2018-03-01T04:33:16.730Z,0.00
2018-03-01T04:34:16.702Z,0.00
2018-03-01T04:35:18.384Z,0.00
2018-03-01T04:36:16.677Z,0.00
2018-03-01T04:37:16.665Z,0.00
2018-03-01T04:38:37.630Z,0.00
2018-03-01T04:39:17.340Z,0.00
2018-03-01T04:40:16.628Z,0.00
2018-03-01T04:41:16.621Z,0.00
2018-03-01T04:42:16.585Z,0.00
2018-03-01T04:43:17.884Z,0.00
2018-03-01T04:44:37.563Z,0.00
2018-03-01T04:45:16.578Z,0.00
2018-03-01T04:46:16.540Z,0.00
2018-03-01T04:47:16.517Z,0.00
2018-03-01T04:48:16.498Z,0.00
2018-03-01T04:49:16.489Z,0.00
2018-03-01T04:50:37.471Z,0.00
2018-03-01T04:51:16.465Z,0.00
2018-03-01T04:52:16.451Z,0.00
2018-03-01T04:53:16.442Z,0.00
2018-03-01T04:54:16.441Z,0.00
2018-03-01T04:55:16.396Z,0.00
2018-03-01T04:56:37.409Z,0.00
2018-03-01T04:57:16.388Z,0.00
2018-03-01T04:58:16.357Z,0.00
2018-03-01T04:59:16.348Z,0.00
2018-03-01T05:00:16.419Z,0.00
2018-03-01T05:01:16.302Z,0.00
2018-03-01T05:02:37.300Z,0.00
2018-03-01T05:03:16.292Z,0.00
2018-03-01T05:04:17.035Z,0.00
2018-03-01T05:05:16.264Z,0.00
2018-03-01T05:06:16.249Z,0.00
2018-03-01T05:07:16.250Z,0.00
2018-03-01T05:08:37.222Z,0.00
2018-03-01T05:09:16.197Z,0.00
2018-03-01T05:10:16.196Z,0.00
2018-03-01T05:11:16.179Z,0.00
2018-03-01T05:12:16.162Z,0.00
2018-03-01T05:13:16.146Z,0.00
2018-03-01T05:14:37.122Z,0.00
2018-03-01T05:15:17.005Z,0.00
2018-03-01T05:16:16.105Z,0.00
2018-03-01T05:17:16.089Z,0.00
2018-03-01T05:18:16.086Z,0.00
2018-03-01T05:19:16.061Z,0.00
2018-03-01T05:20:37.059Z,0.00
2018-03-01T05:21:16.049Z,0.00
2018-03-01T05:22:16.033Z,0.00
2018-03-01T05:23:16.024Z,0.00
2018-03-01T05:24:15.988Z,0.00
2018-03-01T05:25:15.979Z,0.00
2018-03-01T05:26:36.967Z,0.00
2018-03-01T05:27:15.957Z,0.00
2018-03-01T05:28:15.932Z,0.00
2018-03-01T05:29:15.942Z,0.00
2018-03-01T05:30:16.588Z,0.00
2018-03-01T05:31:15.905Z,0.00
2018-03-01T05:32:36.894Z,0.00
2018-03-01T05:33:15.888Z,0.00
2018-03-01T05:34:15.855Z,0.00
2018-03-01T05:35:15.847Z,0.00
2018-03-01T05:36:15.826Z,0.00
2018-03-01T05:37:15.812Z,0.00
2018-03-01T05:38:36.812Z,0.00
2018-03-01T05:39:15.791Z,0.00
2018-03-01T05:40:15.783Z,0.00
2018-03-01T05:41:15.765Z,0.00
2018-03-01T05:42:15.753Z,0.00
2018-03-01T05:43:15.735Z,0.00
2018-03-01T05:44:36.727Z,0.00
2018-03-01T05:45:15.709Z,0.00
2018-03-01T05:46:15.696Z,0.00
2018-03-01T05:47:15.666Z,0.00
2018-03-01T05:48:15.671Z,0.00
2018-03-01T05:49:15.643Z,0.00
2018-03-01T05:50:36.644Z,0.00
2018-03-01T05:51:15.611Z,0.00
2018-03-01T05:52:15.615Z,0.00
2018-03-01T05:53:15.588Z,0.00
2018-03-01T05:54:15.558Z,0.00
2018-03-01T05:55:15.558Z,0.00
2018-03-01T05:56:36.554Z,0.00
2018-03-01T05:57:15.549Z,0.00
2018-03-01T05:58:15.524Z,0.00
2018-03-01T05:59:15.508Z,0.00
2018-03-01T06:00:15.537Z,0.00
2018-03-01T06:01:15.479Z,0.00
2018-03-01T06:02:36.526Z,0.00
2018-03-01T06:03:15.453Z,0.00
2018-03-01T06:04:15.438Z,0.00
2018-03-01T06:05:15.432Z,0.00
2018-03-01T06:06:15.397Z,0.00
2018-03-01T06:07:15.394Z,0.00
2018-03-01T06:08:36.388Z,0.00
2018-03-01T06:09:15.370Z,0.00
2018-03-01T06:10:15.343Z,0.00
2018-03-01T06:11:15.344Z,0.00
2018-03-01T06:12:15.320Z,0.00
2018-03-01T06:13:15.318Z,0.00
2018-03-01T06:14:36.305Z,0.00
2018-03-01T06:15:15.289Z,0.00
2018-03-01T06:16:15.273Z,5.63
2018-03-01T06:17:15.250Z,5.63
2018-03-01T06:18:15.240Z,5.63
2018-03-01T06:19:15.225Z,5.63
2018-03-01T06:20:36.222Z,5.63
2018-03-01T06:21:15.214Z,5.63
2018-03-01T06:22:15.196Z,5.63
2018-03-01T06:23:15.160Z,5.63
2018-03-01T06:24:15.170Z,11.25
2018-03-01T06:25:16.030Z,11.25
2018-03-01T06:26:36.124Z,11.25
2018-03-01T06:27:15.119Z,11.25
2018-03-01T06:28:15.107Z,11.25
2018-03-01T06:29:15.077Z,11.25
2018-03-01T06:30:16.432Z,11.25
2018-03-01T06:31:15.053Z,11.25
2018-03-01T06:32:36.056Z,16.88
2018-03-01T06:33:15.025Z,16.88
2018-03-01T06:34:15.012Z,16.88
2018-03-01T06:35:15.881Z,16.88
2018-03-01T06:36:14.972Z,16.88
2018-03-01T06:37:14.974Z,16.88
2018-03-01T06:38:35.969Z,16.88
2018-03-01T06:39:14.950Z,16.88
2018-03-01T06:40:14.922Z,22.50
2018-03-01T06:41:14.911Z,22.50
2018-03-01T06:42:14.889Z,22.50
2018-03-01T06:43:14.907Z,22.50
2018-03-01T06:44:35.869Z,22.50
2018-03-01T06:45:14.854Z,22.50
2018-03-01T06:46:14.843Z,22.50
2018-03-01T06:47:14.845Z,22.50
2018-03-01T06:48:14.813Z,22.50
2018-03-01T06:49:14.799Z,28.13
2018-03-01T06:50:35.794Z,28.13
2018-03-01T06:51:14.762Z,28.13
2018-03-01T06:52:14.755Z,28.13
2018-03-01T06:53:14.738Z,28.13
2018-03-01T06:54:14.739Z,33.75
2018-03-01T06:55:14.726Z,33.75
2018-03-01T06:56:35.729Z,33.75
2018-03-01T06:57:14.679Z,39.38
2018-03-01T06:58:15.608Z,39.38
2018-03-01T06:59:14.657Z,39.38
2018-03-01T07:00:14.647Z,39.38
2018-03-01T07:01:14.641Z,45.00
2018-03-01T07:02:35.638Z,45.00
2018-03-01T07:03:14.609Z,45.00
2018-03-01T07:04:14.571Z,45.00
2018-03-01T07:05:14.606Z,45.00
2018-03-01T07:06:14.571Z,45.00
2018-03-01T07:07:14.540Z,45.00
2018-03-01T07:08:35.543Z,45.00
2018-03-01T07:09:14.527Z,45.00
2018-03-01T07:10:14.508Z,45.00
2018-03-01T07:11:14.483Z,45.00
2018-03-01T07:12:14.500Z,50.63
2018-03-01T07:13:14.454Z,50.63
2018-03-01T07:14:35.458Z,56.25
2018-03-01T07:15:14.428Z,61.88
2018-03-01T07:16:14.415Z,61.88
2018-03-01T07:17:14.425Z,67.50
2018-03-01T07:18:14.394Z,73.13
2018-03-01T07:19:14.381Z,73.13
2018-03-01T07:20:35.362Z,78.75
2018-03-01T07:21:14.344Z,84.38
2018-03-01T07:22:14.340Z,84.38
2018-03-01T07:23:14.328Z,90.00
2018-03-01T07:24:14.311Z,90.00
2018-03-01T07:25:14.289Z,90.00
2018-03-01T07:26:35.282Z,95.63
2018-03-01T07:27:14.268Z,101.25
2018-03-01T07:28:14.291Z,106.88
2018-03-01T07:29:14.231Z,112.50
2018-03-01T07:30:14.219Z,123.75
2018-03-01T07:31:14.212Z,129.38
2018-03-01T07:32:35.208Z,135.00
2018-03-01T07:33:14.179Z,140.63
2018-03-01T07:34:14.163Z,140.63
2018-03-01T07:35:14.172Z,140.63
2018-03-01T07:36:14.140Z,140.63
2018-03-01T07:37:14.130Z,140.63
2018-03-01T07:38:35.116Z,135.00
2018-03-01T07:39:14.086Z,135.00
2018-03-01T07:40:14.083Z,129.38
2018-03-01T07:41:14.079Z,123.75
2018-03-01T07:42:14.086Z,123.75
2018-03-01T07:43:14.084Z,118.13
2018-03-01T07:44:35.027Z,118.13
2018-03-01T07:45:14.053Z,123.75
2018-03-01T07:46:14.019Z,123.75
2018-03-01T07:47:13.976Z,129.38
2018-03-01T07:48:14.958Z,135.00
2018-03-01T07:49:13.996Z,135.00
2018-03-01T07:50:34.952Z,135.00
2018-03-01T07:51:13.937Z,135.00
2018-03-01T07:52:13.966Z,140.63
2018-03-01T07:53:13.946Z,140.63
2018-03-01T07:54:13.945Z,146.25
2018-03-01T07:55:14.432Z,146.25
2018-03-01T07:56:34.855Z,151.88
2018-03-01T07:57:13.917Z,157.50
2018-03-01T07:58:13.854Z,163.13
2018-03-01T07:59:13.848Z,168.75
2018-03-01T08:00:13.821Z,174.38
2018-03-01T08:01:13.780Z,174.38
2018-03-01T08:02:34.788Z,180.00
2018-03-01T08:03:14.457Z,185.63
2018-03-01T08:04:14.393Z,191.25
2018-03-01T08:05:13.747Z,196.88
2018-03-01T08:06:13.707Z,202.50
2018-03-01T08:07:13.702Z,208.13
2018-03-01T08:08:34.687Z,213.75
2018-03-01T08:09:13.681Z,219.38
2018-03-01T08:10:13.690Z,219.38
2018-03-01T08:11:13.656Z,225.00
2018-03-01T08:12:13.622Z,225.00
2018-03-01T08:13:13.621Z,225.00
2018-03-01T08:14:34.599Z,219.38
2018-03-01T08:15:13.578Z,219.38
2018-03-01T08:16:13.576Z,213.75
2018-03-01T08:17:13.576Z,208.13
2018-03-01T08:18:13.555Z,208.13
2018-03-01T08:19:13.547Z,202.50
2018-03-01T08:20:34.514Z,202.50
2018-03-01T08:21:13.514Z,202.50
2018-03-01T08:22:13.489Z,202.50
2018-03-01T08:23:13.488Z,208.13
2018-03-01T08:24:13.464Z,213.75
2018-03-01T08:25:13.485Z,213.75
2018-03-01T08:26:34.451Z,219.38
2018-03-01T08:27:13.437Z,225.00
2018-03-01T08:28:13.427Z,225.00
2018-03-01T08:29:14.169Z,225.00
2018-03-01T08:30:13.381Z,225.00
2018-03-01T08:31:13.380Z,225.00
2018-03-01T08:32:35.235Z,225.00
2018-03-01T08:33:13.363Z,219.38
2018-03-01T08:34:13.345Z,219.38
2018-03-01T08:35:13.324Z,213.75
2018-03-01T08:36:13.309Z,213.75
2018-03-01T08:37:13.303Z,213.75
2018-03-01T08:38:34.288Z,213.75
2018-03-01T08:39:13.277Z,213.75
2018-03-01T08:40:13.265Z,213.75
2018-03-01T08:41:13.249Z,213.75
2018-03-01T08:42:13.229Z,208.13
2018-03-01T08:43:13.209Z,208.13
2018-03-01T08:44:34.267Z,208.13
2018-03-01T08:45:13.183Z,208.13
2018-03-01T08:46:14.024Z,213.75
2018-03-01T08:47:13.149Z,219.38
2018-03-01T08:48:13.148Z,230.63
2018-03-01T08:49:13.132Z,236.25
2018-03-01T08:50:34.158Z,247.50
2018-03-01T08:51:13.096Z,253.13
2018-03-01T08:52:13.096Z,264.38
2018-03-01T08:53:13.084Z,270.00
2018-03-01T08:54:13.063Z,275.63
2018-03-01T08:55:13.049Z,275.63
2018-03-01T08:56:34.079Z,281.25
2018-03-01T08:57:13.038Z,281.25
2018-03-01T08:58:13.021Z,281.25
2018-03-01T08:59:12.991Z,286.88
2018-03-01T09:00:12.975Z,298.13
2018-03-01T09:01:12.974Z,298.13
2018-03-01T09:02:34.003Z,303.75
2018-03-01T09:03:12.946Z,315.00
2018-03-01T09:04:12.941Z,315.00
2018-03-01T09:05:12.911Z,320.63
2018-03-01T09:06:12.906Z,326.25
2018-03-01T09:07:12.898Z,326.25
2018-03-01T09:08:33.946Z,326.25
2018-03-01T09:09:12.862Z,326.25
2018-03-01T09:10:12.874Z,326.25
2018-03-01T09:11:12.853Z,320.63
2018-03-01T09:12:12.825Z,320.63
2018-03-01T09:13:12.825Z,320.63
2018-03-01T09:14:33.821Z,320.63
2018-03-01T09:15:12.783Z,315.00
2018-03-01T09:16:13.513Z,315.00
2018-03-01T09:17:12.762Z,320.63
2018-03-01T09:18:12.754Z,315.00
2018-03-01T09:19:12.731Z,315.00
2018-03-01T09:20:34.383Z,315.00
2018-03-01T09:21:12.701Z,315.00
2018-03-01T09:22:12.705Z,315.00
2018-03-01T09:23:12.679Z,320.63
2018-03-01T09:24:12.669Z,309.38
2018-03-01T09:25:12.668Z,309.38
2018-03-01T09:26:33.659Z,309.38
2018-03-01T09:27:12.635Z,303.75
2018-03-01T09:28:12.618Z,309.38
2018-03-01T09:29:12.606Z,309.38
2018-03-01T09:30:12.585Z,298.13
2018-03-01T09:31:12.587Z,298.13
2018-03-01T09:32:34.560Z,292.50
2018-03-01T09:33:12.570Z,292.50
2018-03-01T09:34:13.242Z,298.13
2018-03-01T09:35:12.508Z,298.13
2018-03-01T09:36:12.523Z,292.50
2018-03-01T09:37:12.555Z,292.50
2018-03-01T09:38:33.486Z,292.50
2018-03-01T09:39:12.477Z,292.50
2018-03-01T09:40:12.463Z,286.88
2018-03-01T09:41:12.466Z,286.88
2018-03-01T09:42:12.442Z,281.25
2018-03-01T09:43:12.434Z,281.25
2018-03-01T09:44:33.423Z,275.63
2018-03-01T09:45:12.415Z,275.63
2018-03-01T09:46:12.389Z,270.00
2018-03-01T09:47:12.374Z,275.63
2018-03-01T09:48:12.374Z,275.63
2018-03-01T09:49:12.366Z,270.00
2018-03-01T09:50:33.330Z,270.00
2018-03-01T09:51:12.317Z,264.38
2018-03-01T09:52:12.307Z,264.38
2018-03-01T09:53:12.294Z,258.75
2018-03-01T09:54:12.287Z,258.75
2018-03-01T09:55:12.284Z,253.13
2018-03-01T09:56:33.274Z,253.13
2018-03-01T09:57:12.240Z,247.50
2018-03-01T09:58:12.233Z,247.50
2018-03-01T09:59:12.231Z,247.50
2018-03-01T10:00:12.203Z,247.50
2018-03-01T10:01:12.200Z,247.50
2018-03-01T10:02:33.188Z,247.50
2018-03-01T10:03:12.178Z,241.88
2018-03-01T10:04:12.160Z,236.25
2018-03-01T10:05:12.122Z,236.25
2018-03-01T10:06:12.135Z,230.63
2018-03-01T10:07:12.130Z,230.63
2018-03-01T10:08:33.115Z,230.63
2018-03-01T10:09:12.071Z,225.00
2018-03-01T10:10:12.084Z,225.00
2018-03-01T10:11:12.061Z,219.38
2018-03-01T10:12:12.051Z,219.38
2018-03-01T10:13:12.047Z,219.38
2018-03-01T10:14:33.042Z,219.38
2018-03-01T10:15:12.019Z,225.00
2018-03-01T10:16:12.011Z,230.63
2018-03-01T10:17:11.998Z,230.63
2018-03-01T10:18:11.982Z,236.25
2018-03-01T10:19:12.656Z,230.63
2018-03-01T10:20:32.952Z,230.63
2018-03-01T10:21:11.943Z,230.63
2018-03-01T10:22:11.925Z,236.25
2018-03-01T10:23:11.908Z,236.25
2018-03-01T10:24:11.895Z,236.25
2018-03-01T10:25:11.892Z,241.88
2018-03-01T10:26:32.880Z,241.88
2018-03-01T10:27:11.852Z,241.88
2018-03-01T10:28:11.872Z,241.88
2018-03-01T10:29:11.833Z,247.50
2018-03-01T10:30:12.699Z,241.88
2018-03-01T10:31:11.817Z,241.88
2018-03-01T10:32:32.808Z,241.88
2018-03-01T10:33:11.825Z,247.50
2018-03-01T10:34:11.800Z,247.50
2018-03-01T10:35:11.754Z,247.50
2018-03-01T10:36:11.754Z,247.50
2018-03-01T10:37:11.740Z,247.50
2018-03-01T10:38:32.734Z,247.50
2018-03-01T10:39:11.710Z,253.13
2018-03-01T10:40:11.713Z,253.13
2018-03-01T10:41:11.691Z,253.13
2018-03-01T10:42:11.674Z,253.13
2018-03-01T10:43:11.657Z,258.75
2018-03-01T10:44:33.566Z,258.75
2018-03-01T10:45:11.635Z,258.75
2018-03-01T10:46:11.640Z,264.38
2018-03-01T10:47:11.626Z,264.38
2018-03-01T10:48:11.625Z,270.00
2018-03-01T10:49:11.567Z,270.00
2018-03-01T10:50:32.594Z,275.63
2018-03-01T10:51:11.565Z,281.25
2018-03-01T10:52:11.555Z,281.25
2018-03-01T10:53:12.920Z,281.25
2018-03-01T10:54:11.528Z,264.38
2018-03-01T10:55:11.507Z,247.50
2018-03-01T10:56:32.498Z,286.88
2018-03-01T10:57:11.483Z,286.88
2018-03-01T10:58:11.481Z,286.88
2018-03-01T10:59:11.465Z,298.13
2018-03-01T11:00:11.497Z,303.75
2018-03-01T11:01:11.453Z,298.13
2018-03-01T11:02:32.428Z,286.88
2018-03-01T11:03:11.410Z,286.88
2018-03-01T11:04:11.410Z,292.50
2018-03-01T11:05:11.392Z,298.13
2018-03-01T11:06:11.359Z,292.50
2018-03-01T11:07:11.360Z,298.13
2018-03-01T11:08:32.346Z,303.75
2018-03-01T11:09:11.341Z,303.75
2018-03-01T11:10:11.326Z,298.13
2018-03-01T11:11:11.324Z,315.00
2018-03-01T11:12:11.294Z,320.63
2018-03-01T11:13:11.297Z,326.25
2018-03-01T11:14:32.273Z,331.88
2018-03-01T11:15:11.272Z,343.13
2018-03-01T11:16:11.280Z,348.75
2018-03-01T11:17:12.087Z,354.38
2018-03-01T11:18:11.237Z,365.63
2018-03-01T11:19:11.208Z,382.50
2018-03-01T11:20:32.218Z,405.00
2018-03-01T11:21:11.193Z,416.25
2018-03-01T11:22:11.185Z,438.75
2018-03-01T11:23:11.197Z,472.50
2018-03-01T11:24:11.158Z,500.63
2018-03-01T11:25:11.164Z,517.50
2018-03-01T11:26:32.141Z,562.50
2018-03-01T11:27:11.113Z,590.63
2018-03-01T11:28:11.115Z,618.75
2018-03-01T11:29:11.144Z,646.88
2018-03-01T11:30:12.563Z,646.88
2018-03-01T11:31:11.083Z,624.38
2018-03-01T11:32:32.058Z,675.00
2018-03-01T11:33:11.049Z,990.00
2018-03-01T11:34:11.043Z,1237.50
2018-03-01T11:35:11.020Z,1265.63
2018-03-01T11:36:11.027Z,1321.88
2018-03-01T11:37:10.993Z,1400.63
2018-03-01T11:38:32.483Z,1490.63
2018-03-01T11:39:10.979Z,1518.75
2018-03-01T11:40:10.970Z,1440.00
2018-03-01T11:41:10.958Z,1423.13
2018-03-01T11:42:10.955Z,1271.25
2018-03-01T11:43:10.944Z,1209.38
2018-03-01T11:44:31.924Z,1299.38
2018-03-01T11:45:10.914Z,1260.00
2018-03-01T11:46:10.903Z,1254.38
2018-03-01T11:47:10.903Z,1288.13
2018-03-01T11:48:10.890Z,1231.88
2018-03-01T11:49:11.706Z,1254.38
2018-03-01T11:50:31.847Z,1310.63
2018-03-01T11:51:10.846Z,1282.50
2018-03-01T11:52:10.843Z,1293.75
2018-03-01T11:53:12.920Z,1372.50
2018-03-01T11:54:10.805Z,1411.88
2018-03-01T11:55:10.802Z,1411.88
2018-03-01T11:56:31.796Z,1333.13
2018-03-01T11:57:10.771Z,1310.63
2018-03-01T11:58:10.786Z,1316.25
2018-03-01T11:59:10.756Z,1231.88
2018-03-01T12:00:10.752Z,1276.88
2018-03-01T12:01:10.731Z,1271.25
2018-03-01T12:02:31.736Z,1327.50
2018-03-01T12:03:11.230Z,1288.13
2018-03-01T12:04:10.714Z,1310.63
2018-03-01T12:05:11.620Z,1344.38
2018-03-01T12:06:10.693Z,1395.00
2018-03-01T12:07:10.666Z,1400.63
2018-03-01T12:08:31.677Z,1316.25
2018-03-01T12:09:10.654Z,1288.13
2018-03-01T12:10:10.653Z,1254.38
2018-03-01T12:11:10.640Z,1333.13
2018-03-01T12:12:10.642Z,1271.25
2018-03-01T12:13:10.612Z,1271.25
2018-03-01T12:14:31.611Z,1276.88
2018-03-01T12:15:10.593Z,1316.25
2018-03-01T12:16:10.586Z,1316.25
2018-03-01T12:17:10.568Z,1299.38
2018-03-01T12:18:10.577Z,1288.13
2018-03-01T12:19:10.562Z,1299.38
2018-03-01T12:20:31.530Z,1350.00
2018-03-01T12:21:10.551Z,1395.00
2018-03-01T12:22:10.537Z,1350.00
2018-03-01T12:23:10.531Z,1327.50
2018-03-01T12:24:11.426Z,1305.00
2018-03-01T12:25:10.495Z,1248.75
2018-03-01T12:26:32.427Z,1327.50
2018-03-01T12:27:10.464Z,1276.88
2018-03-01T12:28:10.491Z,1321.88
2018-03-01T12:29:10.445Z,1350.00
2018-03-01T12:30:10.452Z,1310.63
2018-03-01T12:31:10.441Z,1293.75
2018-03-01T12:32:31.440Z,1265.63
2018-03-01T12:33:10.419Z,1243.13
2018-03-01T12:34:10.403Z,1175.63
2018-03-01T12:35:10.405Z,1147.50
2018-03-01T12:36:10.375Z,1102.50
2018-03-01T12:37:10.387Z,1153.13
2018-03-01T12:38:31.362Z,1108.13
2018-03-01T12:39:10.350Z,900.00
2018-03-01T12:40:10.344Z,1063.13
2018-03-01T12:41:10.326Z,1068.75
2018-03-01T12:42:10.320Z,973.13
2018-03-01T12:43:10.326Z,894.38
2018-03-01T12:44:31.335Z,821.25
2018-03-01T12:45:10.271Z,708.75
2018-03-01T12:46:10.291Z,641.25
2018-03-01T12:47:10.250Z,607.50
2018-03-01T12:48:10.267Z,613.13
2018-03-01T12:49:10.252Z,601.88
2018-03-01T12:50:31.250Z,545.63
2018-03-01T12:51:10.246Z,534.38
2018-03-01T12:52:10.210Z,556.88